Time;durP1;ratioP1;P1;durP2;ratioP2;P2;SDS_P1;SDS_P2;PMS_P1;PMS_P2;Temp;Humidity;BMP_temperature;BMP_pressure;BME280_temperature;BME280_humidity;BME280_pressure;Samples;Min_cycle;Max_cycle;Signal;HPM_P1;HPM_P2
2021/05/13 00:00:41;;;;;;;12.82;3.60;;;11.90;99.90;;;;;;5055450;28;20199;-90
2021/05/13 00:03:06;;;;;;;6.82;3.58;;;11.90;99.90;;;;;;5055564;28;20229;-91
2021/05/13 00:05:32;;;;;;;6.63;2.67;;;11.90;99.90;;;;;;5055920;28;20171;-89
2021/05/13 00:07:58;;;;;;;7.78;3.45;;;12.00;99.90;;;;;;5037712;28;20183;-91
2021/05/13 00:10:25;;;;;;;8.80;3.00;;;12.10;99.90;;;;;;5056123;28;20175;-91
2021/05/13 00:12:58;;;;;;;5.55;3.08;;;12.10;99.90;;;;;;5054671;28;20587;-90
2021/05/13 00:15:26;;;;;;;7.30;3.00;;;12.00;99.90;;;;;;5057461;28;20155;-91
2021/05/13 00:17:53;;;;;;;4.75;2.35;;;12.10;99.90;;;;;;5054365;28;20254;-90
2021/05/13 00:20:32;;;;;;;5.93;2.78;;;12.20;99.90;;;;;;5054787;28;20167;-90
2021/05/13 00:22:58;;;;;;;5.78;2.97;;;12.30;99.90;;;;;;5055457;28;20274;-90
2021/05/13 00:25:26;;;;;;;5.65;2.90;;;12.40;99.90;;;;;;5038205;28;20202;-91
2021/05/13 00:27:52;;;;;;;4.55;3.17;;;12.40;99.90;;;;;;5035419;28;20222;-90
2021/05/13 00:30:18;;;;;;;5.05;2.67;;;12.40;99.90;;;;;;5068139;28;20187;-90
2021/05/13 00:32:45;;;;;;;8.48;3.50;;;12.50;99.90;;;;;;5036250;28;20175;-91
2021/05/13 00:35:13;;;;;;;7.10;2.95;;;12.60;99.90;;;;;;5041524;28;20648;-90
2021/05/13 00:37:39;;;;;;;7.95;3.25;;;12.60;99.90;;;;;;5057912;28;20697;-92
2021/05/13 00:40:07;;;;;;;3.72;2.45;;;12.70;99.90;;;;;;5075696;28;20171;-91
2021/05/13 00:42:33;;;;;;;10.13;3.10;;;12.70;99.90;;;;;;5077290;28;20203;-92
2021/05/13 00:44:59;;;;;;;5.72;2.67;;;12.70;99.90;;;;;;5076535;28;20270;-91
2021/05/13 00:47:28;;;;;;;7.25;2.50;;;12.70;99.90;;;;;;5053670;28;20313;-91
2021/05/13 00:49:54;;;;;;;4.53;2.70;;;12.70;99.90;;;;;;5057880;28;20213;-90
2021/05/13 00:52:21;;;;;;;3.97;2.55;;;12.70;99.90;;;;;;5059921;28;20175;-89
2021/05/13 00:54:47;;;;;;;3.58;2.50;;;12.80;99.90;;;;;;5059608;28;20206;-89
2021/05/13 00:57:14;;;;;;;5.03;2.35;;;12.80;99.90;;;;;;5067621;28;20187;-89
2021/05/13 00:59:43;;;;;;;5.30;2.97;;;12.70;99.90;;;;;;5060055;28;20182;-92
2021/05/13 01:02:09;;;;;;;3.78;2.55;;;12.60;99.90;;;;;;5063480;28;20200;-91
2021/05/13 01:04:35;;;;;;;5.57;3.03;;;12.60;99.90;;;;;;5061303;28;20206;-90
2021/05/13 01:07:01;;;;;;;4.85;3.08;;;12.60;99.90;;;;;;5059655;28;20198;-92
2021/05/13 01:09:30;;;;;;;10.02;3.50;;;12.60;99.90;;;;;;5061092;28;20171;-90
2021/05/13 01:12:02;;;;;;;4.38;2.97;;;12.60;99.90;;;;;;5044809;28;20746;-91
2021/05/13 01:14:32;;;;;;;6.75;3.35;;;12.70;99.90;;;;;;5041749;28;20652;-89
2021/05/13 01:17:38;;;;;;;8.25;4.22;;;12.60;99.90;;;;;;5075587;28;20259;-90
2021/05/13 01:19:54;;;;;;;4.13;3.58;;;12.60;99.90;;;;;;5042405;28;20241;-90
2021/05/13 01:22:23;;;;;;;4.82;3.10;;;12.50;99.90;;;;;;5041475;28;20215;-91
2021/05/13 01:24:50;;;;;;;5.57;3.47;;;12.50;99.90;;;;;;5059961;28;20183;-91
2021/05/13 01:27:18;;;;;;;5.38;4.63;;;12.50;99.90;;;;;;5062671;28;20167;-91
2021/05/13 01:29:46;;;;;;;7.93;3.88;;;12.50;99.90;;;;;;5061736;28;20221;-91
2021/05/13 01:32:13;;;;;;;10.48;3.55;;;12.60;99.90;;;;;;5061405;28;20225;-90
2021/05/13 01:34:39;;;;;;;6.28;4.40;;;12.70;99.90;;;;;;5071210;28;20227;-92
2021/05/13 01:37:04;;;;;;;7.45;3.88;;;12.70;99.90;;;;;;5076937;28;20172;-92
2021/05/13 01:39:30;;;;;;;5.57;4.03;;;12.70;99.90;;;;;;5078799;28;20171;-89
2021/05/13 01:41:56;;;;;;;6.32;4.30;;;12.60;99.90;;;;;;5078867;28;20186;-91
2021/05/13 01:44:21;;;;;;;9.95;4.93;;;12.50;99.90;;;;;;5077178;28;20191;-91
2021/05/13 01:46:47;;;;;;;6.38;5.15;;;12.50;99.90;;;;;;5068596;28;20168;-91
2021/05/13 01:49:18;;;;;;;11.55;5.93;;;12.50;99.90;;;;;;5063997;28;20252;-91
2021/05/13 01:51:45;;;;;;;9.50;4.60;;;12.40;99.90;;;;;;5063541;28;20195;-90
2021/05/13 01:54:11;;;;;;;10.38;4.88;;;12.40;99.90;;;;;;5059916;28;20168;-90
2021/05/13 01:56:36;;;;;;;4.57;4.13;;;12.40;99.90;;;;;;5062488;28;20207;-91
2021/05/13 01:59:03;;;;;;;10.75;5.75;;;12.30;99.90;;;;;;5062415;28;20180;-91
2021/05/13 02:01:28;;;;;;;17.17;5.38;;;12.20;99.90;;;;;;5064131;28;20198;-91
2021/05/13 02:03:55;;;;;;;8.52;4.97;;;12.10;99.90;;;;;;5061965;28;20179;-91
2021/05/13 02:06:21;;;;;;;11.40;4.97;;;12.00;99.90;;;;;;5061021;28;20194;-91
2021/05/13 02:08:46;;;;;;;7.38;5.82;;;11.90;99.90;;;;;;5059823;28;20193;-91
2021/05/13 02:11:12;;;;;;;17.48;5.50;;;11.80;99.90;;;;;;5061063;28;20171;-91
2021/05/13 02:13:38;;;;;;;7.60;5.22;;;11.80;99.90;;;;;;5043033;28;20539;-90
2021/05/13 02:16:03;;;;;;;9.93;5.97;;;11.70;99.90;;;;;;5061100;28;20171;-91
2021/05/13 02:18:29;;;;;;;12.00;5.63;;;11.70;99.90;;;;;;5060515;28;20167;-91
2021/05/13 02:20:55;;;;;;;7.30;6.35;;;11.70;99.90;;;;;;5060770;28;20199;-91
2021/05/13 02:23:21;;;;;;;7.60;6.10;;;11.70;99.90;;;;;;5043821;28;20180;-91
2021/05/13 02:25:47;;;;;;;11.13;6.35;;;11.70;99.90;;;;;;5061362;28;20195;-90
2021/05/13 02:28:14;;;;;;;6.38;5.70;;;11.60;99.90;;;;;;5059952;28;20239;-90
2021/05/13 02:30:39;;;;;;;9.68;6.00;;;11.50;99.90;;;;;;5069675;28;20175;-91
2021/05/13 02:33:05;;;;;;;8.32;6.05;;;11.40;99.90;;;;;;5069956;28;20178;-91
2021/05/13 02:35:32;;;;;;;7.25;6.55;;;11.30;99.90;;;;;;5052469;28;20271;-91
2021/05/13 02:37:58;;;;;;;12.27;6.50;;;11.30;99.90;;;;;;5059619;28;20663;-91
2021/05/13 02:40:24;;;;;;;7.07;6.38;;;11.30;99.90;;;;;;5059566;28;20629;-91
2021/05/13 02:42:54;;;;;;;11.30;6.75;;;11.30;99.90;;;;;;5059772;28;20255;-90
2021/05/13 02:45:19;;;;;;;8.95;6.25;;;11.20;99.90;;;;;;5060115;28;20195;-90
2021/05/13 02:47:45;;;;;;;14.48;7.07;;;11.20;99.90;;;;;;5044013;28;20182;-91
2021/05/13 02:50:13;;;;;;;10.20;6.82;;;11.30;99.90;;;;;;5061455;28;20167;-91
2021/05/13 02:52:41;;;;;;;9.00;6.47;;;11.20;99.90;;;;;;5059468;28;20175;-91
2021/05/13 02:55:09;;;;;;;11.48;6.75;;;11.20;99.90;;;;;;5058564;28;20333;-90
2021/05/13 02:57:37;;;;;;;9.60;6.53;;;11.10;99.90;;;;;;5060150;28;20190;-91
2021/05/13 03:02:45;;;;;;;8.38;7.10;;;11.10;99.90;;;;;;5060236;28;20195;-90
2021/05/13 03:05:14;;;;;;;11.60;7.47;;;11.10;99.90;;;;;;5060432;28;20175;-91
2021/05/13 03:08:03;;;;;;;9.65;7.25;;;11.10;99.90;;;;;;5060174;28;20174;-91
2021/05/13 03:13:11;;;;;;;7.80;7.00;;;11.10;99.90;;;;;;5075359;28;20156;-92
2021/05/13 03:15:37;;;;;;;10.55;6.70;;;11.10;99.90;;;;;;5079293;28;20163;-92
2021/05/13 03:18:06;;;;;;;14.38;6.60;;;11.00;99.90;;;;;;5071115;28;20156;-90
2021/05/13 03:20:44;;;;;;;9.52;6.63;;;10.90;99.90;;;;;;5060643;28;20190;-91
2021/05/13 03:23:12;;;;;;;7.07;6.38;;;10.80;99.90;;;;;;5060245;28;20532;-90
2021/05/13 03:25:40;;;;;;;10.27;6.80;;;10.80;99.90;;;;;;5059571;28;20179;-91
2021/05/13 03:28:09;;;;;;;13.73;7.38;;;10.80;99.90;;;;;;5044316;28;20203;-91
2021/05/13 03:30:36;;;;;;;9.70;7.45;;;10.80;99.90;;;;;;5055488;28;20182;-91
2021/05/13 03:33:01;;;;;;;9.02;8.10;;;10.90;99.90;;;;;;5076847;28;20164;-92
2021/05/13 03:35:28;;;;;;;10.27;8.10;;;10.90;99.90;;;;;;5069321;28;20250;-91
2021/05/13 03:37:54;;;;;;;11.38;8.40;;;11.10;99.90;;;;;;5058485;28;20171;-91
2021/05/13 03:40:19;;;;;;;7.70;7.00;;;11.10;99.90;;;;;;5057652;28;20172;-91
2021/05/13 03:42:45;;;;;;;11.98;7.30;;;10.90;99.90;;;;;;5057206;28;20309;-90
2021/05/13 03:45:13;;;;;;;10.95;7.93;;;10.80;99.90;;;;;;5057028;28;20174;-90
2021/05/13 03:47:39;;;;;;;10.65;7.95;;;10.70;99.90;;;;;;5057695;28;20488;-91
2021/05/13 03:50:06;;;;;;;13.98;7.20;;;10.70;99.90;;;;;;5035557;28;20186;-90
2021/05/13 03:52:31;;;;;;;14.02;7.72;;;10.70;99.90;;;;;;5044938;28;20717;-91
2021/05/13 03:54:59;;;;;;;10.88;7.68;;;10.80;99.90;;;;;;5058715;28;20176;-91
2021/05/13 03:57:25;;;;;;;10.68;7.40;;;10.80;99.90;;;;;;5057569;28;20183;-91
2021/05/13 03:59:53;;;;;;;9.30;7.13;;;10.80;99.90;;;;;;5060717;28;20190;-91
2021/05/13 04:02:32;;;;;;;10.60;7.00;;;10.80;99.90;;;;;;5061743;28;20210;-90
2021/05/13 04:04:58;;;;;;;12.32;7.35;;;10.70;99.90;;;;;;5060036;28;20551;-91
2021/05/13 04:07:31;;;;;;;14.90;7.65;;;10.80;99.90;;;;;;5060681;28;20164;-91
2021/05/13 04:09:57;;;;;;;9.07;8.18;;;10.70;99.90;;;;;;5058965;28;20168;-90
2021/05/13 04:12:24;;;;;;;13.15;7.43;;;10.70;99.90;;;;;;5059642;28;20194;-90
2021/05/13 04:14:50;;;;;;;9.68;6.85;;;10.80;99.90;;;;;;5060117;28;20159;-91
2021/05/13 04:17:16;;;;;;;9.48;7.88;;;10.90;99.90;;;;;;5059173;28;20262;-90
2021/05/13 04:19:42;;;;;;;10.70;7.82;;;10.90;99.90;;;;;;5059017;28;20233;-90
2021/05/13 04:22:09;;;;;;;12.13;8.35;;;11.00;99.90;;;;;;5059408;28;20187;-91
2021/05/13 04:24:35;;;;;;;13.75;7.78;;;11.10;99.90;;;;;;5059284;28;20505;-90
2021/05/13 04:27:00;;;;;;;10.68;7.13;;;11.20;99.90;;;;;;5057531;28;20229;-90
2021/05/13 04:29:27;;;;;;;11.90;7.70;;;11.30;99.90;;;;;;5061501;28;20221;-90
2021/05/13 04:31:52;;;;;;;11.77;7.97;;;11.40;99.90;;;;;;5061821;28;20173;-90
2021/05/13 04:34:18;;;;;;;9.52;7.78;;;11.60;99.90;;;;;;5061778;28;20167;-90
2021/05/13 04:36:44;;;;;;;18.15;7.50;;;11.70;99.90;;;;;;5061495;28;20174;-90
2021/05/13 04:39:09;;;;;;;9.75;6.75;;;11.90;99.90;;;;;;5040617;28;20176;-90
2021/05/13 04:41:40;;;;;;;9.10;6.40;;;12.10;99.90;;;;;;5074273;28;20202;-90
2021/05/13 04:44:06;;;;;;;12.98;6.30;;;12.20;99.90;;;;;;5062207;28;20230;-90
2021/05/13 04:46:33;;;;;;;8.10;5.28;;;12.30;99.90;;;;;;5061449;28;20168;-90
2021/05/13 04:51:32;;;;;;;11.55;6.13;;;12.60;99.90;;;;;;5061680;28;20201;-91
2021/05/13 04:53:58;;;;;;;7.72;4.97;;;12.80;99.90;;;;;;5058596;28;20176;-90
2021/05/13 04:56:24;;;;;;;4.93;4.38;;;13.30;99.90;;;;;;5058425;28;20187;-90
2021/05/13 04:58:50;;;;;;;7.82;5.22;;;13.70;99.90;;;;;;5058023;28;20577;-90
2021/05/13 05:01:17;;;;;;;6.22;3.92;;;14.10;99.90;;;;;;5058117;28;20202;-90
2021/05/13 05:03:43;;;;;;;4.30;3.55;;;15.00;99.90;;;;;;5058614;28;20175;-88
2021/05/13 05:06:10;;;;;;;4.00;3.65;;;16.30;99.90;;;;;;5042108;28;20175;-90
2021/05/13 05:08:36;;;;;;;4.22;3.63;;;17.60;99.90;;;;;;5058985;28;20171;-91
2021/05/13 05:11:02;;;;;;;6.88;3.53;;;18.60;99.90;;;;;;5042357;28;20182;-91
2021/05/13 05:13:30;;;;;;;5.55;3.92;;;19.50;99.90;;;;;;5061987;28;20250;-92
2021/05/13 05:15:56;;;;;;;4.38;3.65;;;20.40;99.90;;;;;;5063478;28;20174;-91
2021/05/13 05:18:23;;;;;;;5.32;3.88;;;21.40;99.90;;;;;;5062693;28;20187;-92
2021/05/13 05:20:49;;;;;;;5.13;3.33;;;22.00;99.90;;;;;;5062691;28;20202;-92
2021/05/13 05:23:15;;;;;;;4.57;3.10;;;22.30;99.90;;;;;;5063821;28;20179;-90
2021/05/13 05:25:41;;;;;;;5.22;3.28;;;22.40;99.90;;;;;;5060817;28;20179;-91
2021/05/13 05:28:08;;;;;;;9.20;3.20;;;22.50;99.90;;;;;;5061838;28;20163;-91
2021/05/13 05:30:34;;;;;;;4.45;2.80;;;22.70;99.90;;;;;;5061973;28;20171;-90
2021/05/13 05:33:07;;;;;;;9.73;4.13;;;22.90;99.90;;;;;;5044195;28;20175;-90
2021/05/13 05:35:34;;;;;;;8.30;3.63;;;23.00;99.90;;;;;;5062298;28;20164;-90
2021/05/13 05:38:03;;;;;;;4.40;3.08;;;23.00;99.90;;;;;;5058663;28;20171;-90
2021/05/13 05:40:29;;;;;;;6.70;3.17;;;22.60;99.90;;;;;;5060577;28;20168;-90
2021/05/13 05:42:55;;;;;;;4.18;2.38;;;21.20;99.90;;;;;;5065624;28;20179;-91
2021/05/13 05:45:21;;;;;;;5.00;2.70;;;19.40;99.90;;;;;;5076732;28;20147;-92
2021/05/13 05:47:48;;;;;;;5.03;2.70;;;18.20;99.90;;;;;;5080514;28;20154;-92
2021/05/13 05:50:15;;;;;;;8.77;2.75;;;17.50;99.90;;;;;;5069253;28;20171;-90
2021/05/13 05:52:40;;;;;;;8.90;2.85;;;17.20;99.90;;;;;;5059189;28;20167;-90
2021/05/13 05:55:08;;;;;;;4.03;2.42;;;17.20;99.90;;;;;;5058176;28;20182;-91
2021/05/13 05:57:34;;;;;;;5.70;3.20;;;17.10;99.90;;;;;;5056654;28;20704;-90
2021/05/13 06:00:01;;;;;;;6.57;2.78;;;17.10;99.90;;;;;;5058311;28;20199;-91
2021/05/13 06:02:27;;;;;;;9.73;3.33;;;17.20;99.90;;;;;;5072843;28;20195;-89
2021/05/13 06:04:52;;;;;;;6.90;3.22;;;17.20;99.90;;;;;;5077974;28;20166;-92
2021/05/13 06:07:19;;;;;;;6.60;3.13;;;17.30;99.90;;;;;;5069269;28;20183;-90
2021/05/13 06:09:45;;;;;;;7.07;2.97;;;17.20;99.90;;;;;;5060590;28;20178;-90
2021/05/13 06:12:12;;;;;;;7.10;3.10;;;17.20;99.90;;;;;;5059041;28;20172;-90
2021/05/13 06:14:38;;;;;;;9.90;3.78;;;17.20;99.90;;;;;;5059697;28;20171;-90
2021/05/13 06:17:04;;;;;;;8.27;3.60;;;17.20;99.90;;;;;;5058148;28;20173;-90
2021/05/13 06:19:30;;;;;;;7.95;4.22;;;17.20;99.90;;;;;;5058435;28;20186;-90
2021/05/13 06:21:56;;;;;;;5.75;3.88;;;17.30;99.90;;;;;;5058383;28;20534;-90
2021/05/13 06:24:22;;;;;;;6.05;3.45;;;17.30;99.90;;;;;;5057953;28;20210;-90
2021/05/13 06:26:59;;;;;;;9.05;3.90;;;17.40;99.90;;;;;;5059046;28;20167;-90
2021/05/13 06:29:27;;;;;;;10.30;3.35;;;17.50;99.90;;;;;;5056643;28;20167;-90
2021/05/13 06:31:53;;;;;;;12.10;3.20;;;17.50;99.90;;;;;;5058950;28;20270;-90
2021/05/13 06:34:18;;;;;;;4.57;3.08;;;17.70;99.90;;;;;;5040591;28;20218;-90
2021/05/13 06:36:44;;;;;;;6.80;3.22;;;17.80;99.90;;;;;;5057423;28;20223;-90
2021/05/13 06:39:10;;;;;;;10.70;3.50;;;17.90;99.90;;;;;;5056868;28;20531;-90
2021/05/13 06:41:36;;;;;;;8.82;2.90;;;18.10;99.90;;;;;;5058578;28;20196;-89
2021/05/13 06:44:02;;;;;;;9.55;2.63;;;18.20;99.90;;;;;;5058274;28;20186;-91
2021/05/13 06:46:28;;;;;;;11.65;2.40;;;18.30;99.90;;;;;;5059711;28;20164;-89
2021/05/13 06:48:54;;;;;;;11.25;2.90;;;18.30;99.90;;;;;;5059764;28;20579;-90
2021/05/13 06:51:20;;;;;;;9.20;3.03;;;18.30;99.90;;;;;;5038944;28;20188;-90
2021/05/13 06:53:46;;;;;;;8.32;3.05;;;18.20;99.90;;;;;;5049706;28;20198;-90
2021/05/13 06:56:12;;;;;;;6.38;2.85;;;18.20;99.90;;;;;;5064844;28;20637;-90
2021/05/13 06:58:38;;;;;;;5.47;2.50;;;18.10;99.90;;;;;;5066110;28;20167;-90
2021/05/13 07:01:04;;;;;;;5.60;2.55;;;18.20;99.90;;;;;;5051918;28;20199;-89
2021/05/13 07:03:30;;;;;;;5.15;2.40;;;18.10;99.90;;;;;;5053396;28;20241;-89
2021/05/13 07:05:56;;;;;;;6.63;3.05;;;18.10;99.90;;;;;;5064664;28;20175;-90
2021/05/13 07:08:22;;;;;;;6.90;2.75;;;18.20;99.90;;;;;;5069166;28;20155;-91
2021/05/13 07:10:47;;;;;;;9.73;2.50;;;18.40;99.90;;;;;;5078895;28;20179;-91
2021/05/13 07:13:13;;;;;;;7.63;2.30;;;18.50;99.90;;;;;;5078579;28;20155;-90
2021/05/13 07:15:39;;;;;;;10.27;2.53;;;18.60;99.90;;;;;;5078486;28;20162;-92
2021/05/13 07:18:10;;;;;;;7.70;2.72;;;18.70;99.90;;;;;;5079278;28;20251;-91
2021/05/13 07:20:36;;;;;;;6.85;2.00;;;18.90;99.90;;;;;;5079217;28;20148;-90
2021/05/13 07:23:01;;;;;;;11.65;1.85;;;19.00;99.90;;;;;;5068151;28;20193;-90
2021/05/13 07:25:27;;;;;;;8.05;2.03;;;19.30;99.90;;;;;;5064045;28;20167;-91
2021/05/13 07:27:53;;;;;;;8.75;1.90;;;19.30;99.90;;;;;;5062428;28;20163;-92
2021/05/13 07:30:19;;;;;;;9.25;1.92;;;19.20;99.90;;;;;;5061919;28;20198;-91
2021/05/13 07:32:44;;;;;;;14.80;2.28;;;19.50;99.90;;;;;;5060702;28;20179;-92
2021/05/13 07:35:12;;;;;;;4.32;1.83;;;20.20;99.90;;;;;;5066561;28;20213;-92
2021/05/13 07:37:38;;;;;;;16.65;1.83;;;20.90;99.90;;;;;;5041199;28;20179;-92
2021/05/13 07:40:05;;;;;;;7.00;1.65;;;21.50;99.90;;;;;;5075613;28;20172;-92
2021/05/13 07:42:30;;;;;;;3.53;1.58;;;22.40;99.90;;;;;;5072196;28;20192;-91
2021/05/13 07:44:56;;;;;;;6.43;1.40;;;22.60;99.90;;;;;;5049898;28;20190;-90
2021/05/13 07:47:23;;;;;;;5.75;1.80;;;21.70;99.90;;;;;;5059004;28;20250;-90
2021/05/13 07:49:50;;;;;;;7.28;1.58;;;20.80;99.90;;;;;;5059863;28;20187;-90
2021/05/13 07:52:17;;;;;;;3.53;1.52;;;21.10;99.90;;;;;;5040226;28;20218;-90
2021/05/13 07:54:43;;;;;;;3.17;1.48;;;21.80;99.90;;;;;;5057557;28;20194;-90
2021/05/13 07:57:10;;;;;;;3.13;1.42;;;22.10;99.90;;;;;;5056815;28;20235;-90
2021/05/13 07:59:35;;;;;;;6.20;1.35;;;22.50;99.90;;;;;;5044378;28;20531;-89
2021/05/13 08:02:01;;;;;;;3.63;1.60;;;22.80;99.90;;;;;;5038890;28;20197;-90
2021/05/13 08:04:27;;;;;;;5.00;1.45;;;22.80;99.90;;;;;;5056338;28;20186;-90
2021/05/13 08:06:53;;;;;;;8.82;2.38;;;23.10;99.90;;;;;;5036358;28;20195;-91
2021/05/13 08:09:18;;;;;;;6.47;1.48;;;23.10;99.90;;;;;;5057153;28;20199;-91
2021/05/13 08:11:44;;;;;;;6.95;2.05;;;23.20;99.90;;;;;;5056834;28;20178;-89
2021/05/13 08:14:09;;;;;;;3.92;1.60;;;23.20;99.90;;;;;;5061814;28;20174;-90
2021/05/13 08:16:35;;;;;;;7.63;1.40;;;23.20;99.90;;;;;;5071654;28;20202;-90
2021/05/13 08:19:01;;;;;;;4.95;1.65;;;23.00;99.90;;;;;;5077043;28;20152;-90
2021/05/13 08:21:27;;;;;;;5.88;1.83;;;22.70;99.90;;;;;;5066405;28;20706;-90
2021/05/13 08:23:52;;;;;;;6.20;1.70;;;22.00;99.90;;;;;;5079502;28;20183;-89
2021/05/13 08:26:18;;;;;;;5.50;2.08;;;21.60;99.90;;;;;;5057526;28;20198;-90
2021/05/13 08:28:44;;;;;;;4.47;2.00;;;21.30;99.90;;;;;;5036550;28;20551;-90
2021/05/13 08:31:09;;;;;;;5.80;1.83;;;20.80;99.90;;;;;;5069975;28;20175;-89
2021/05/13 08:33:35;;;;;;;5.00;1.90;;;20.30;99.90;;;;;;5066913;28;20173;-90
2021/05/13 08:36:00;;;;;;;13.07;1.70;;;19.70;99.90;;;;;;5073671;28;20176;-91
2021/05/13 08:38:26;;;;;;;10.57;2.03;;;19.60;99.90;;;;;;5066410;28;20180;-89
2021/05/13 08:40:52;;;;;;;6.57;2.45;;;19.70;99.90;;;;;;5053720;28;20183;-90
2021/05/13 08:43:25;;;;;;;12.27;2.53;;;19.40;99.90;;;;;;5055001;28;20190;-88
2021/05/13 08:45:52;;;;;;;7.15;1.83;;;19.40;99.90;;;;;;5043967;28;20167;-88
2021/05/13 08:48:19;;;;;;;7.88;2.28;;;19.70;99.90;;;;;;5055230;28;20179;-88
2021/05/13 08:50:45;;;;;;;5.47;1.63;;;20.10;99.90;;;;;;5054193;28;20250;-92
2021/05/13 08:53:11;;;;;;;3.95;1.50;;;20.60;99.90;;;;;;5054231;28;20182;-89
2021/05/13 08:55:37;;;;;;;8.00;1.73;;;21.50;99.90;;;;;;5054342;28;20175;-89
2021/05/13 08:58:04;;;;;;;8.02;2.08;;;22.10;99.90;;;;;;5104248;28;20174;-91
2021/05/13 09:00:30;;;;;;;3.92;1.85;;;22.70;99.90;;;;;;5093043;28;20172;-91
2021/05/13 09:02:55;;;;;;;5.85;2.00;;;23.00;99.90;;;;;;5058308;28;20219;-90
2021/05/13 09:05:22;;;;;;;3.72;1.58;;;22.70;99.90;;;;;;5074972;28;20191;-91
2021/05/13 09:07:48;;;;;;;7.90;2.03;;;22.30;99.90;;;;;;5059636;28;20271;-90
2021/05/13 09:10:16;;;;;;;7.22;1.83;;;21.90;99.90;;;;;;5054993;28;20206;-90
2021/05/13 09:12:42;;;;;;;4.15;1.90;;;21.50;99.90;;;;;;5056663;28;20229;-91
2021/05/13 09:15:27;;;;;;;7.75;2.05;;;21.00;99.90;;;;;;5040053;28;20184;-91
2021/05/13 09:17:56;;;;;;;5.45;2.15;;;20.90;99.90;;;;;;5039141;28;20250;-90
2021/05/13 09:20:22;;;;;;;2.85;1.63;;;20.30;99.90;;;;;;5053756;28;20184;-91
2021/05/13 09:22:48;;;;;;;9.23;2.17;;;20.20;99.90;;;;;;5049071;28;20679;-90
2021/05/13 09:25:13;;;;;;;9.25;1.92;;;20.40;99.90;;;;;;5058740;28;20266;-88
2021/05/13 09:27:49;;;;;;;7.43;2.13;;;20.40;99.90;;;;;;5060313;28;20176;-89
2021/05/13 09:30:21;;;;;;;5.63;1.65;;;20.40;99.90;;;;;;5091146;28;20228;-91
2021/05/13 09:32:52;;;;;;;4.97;1.83;;;20.50;99.90;;;;;;5058497;28;20520;-91
2021/05/13 09:35:24;;;;;;;3.95;1.73;;;20.60;99.90;;;;;;5044166;28;20177;-90
2021/05/13 09:37:50;;;;;;;11.60;2.00;;;20.50;99.90;;;;;;5064532;28;20178;-89
2021/05/13 09:40:39;;;;;;;6.80;2.00;;;20.50;99.90;;;;;;5091469;28;20210;-88
2021/05/13 09:43:13;;;;;;;5.60;1.50;;;20.50;99.90;;;;;;5057656;28;20241;-90
2021/05/13 09:45:53;;;;;;;5.50;2.00;;;20.90;99.90;;;;;;5051394;28;20529;-89
2021/05/13 09:48:39;;;;;;;4.93;2.10;;;21.30;99.90;;;;;;5056200;28;20622;-89
2021/05/13 09:51:25;;;;;;;9.95;2.20;;;22.00;99.90;;;;;;5035928;28;20190;-89
2021/05/13 09:54:12;;;;;;;8.57;1.85;;;23.80;99.90;;;;;;5052983;28;20176;-89
2021/05/13 09:56:43;;;;;;;4.03;1.60;;;26.90;98.20;;;;;;5049486;28;20191;-90
2021/05/13 09:59:28;;;;;;;7.40;2.08;;;29.70;94.20;;;;;;5056337;28;20175;-90
2021/05/13 10:02:08;;;;;;;6.20;2.20;;;32.90;84.40;;;;;;5055550;28;20237;-92
2021/05/13 10:04:34;;;;;;;5.10;1.90;;;32.70;82.30;;;;;;5055713;28;20167;-90
2021/05/13 10:07:00;;;;;;;10.18;2.13;;;33.50;76.90;;;;;;5040722;28;20518;-89
2021/05/13 10:09:26;;;;;;;5.32;1.80;;;33.00;76.70;;;;;;5041292;28;20183;-90
2021/05/13 10:11:57;;;;;;;4.47;1.77;;;31.40;80.60;;;;;;5023292;28;20184;-90
2021/05/13 10:14:25;;;;;;;8.75;1.85;;;30.40;80.60;;;;;;5036428;28;20175;-90
2021/05/13 10:16:54;;;;;;;6.15;2.55;;;28.50;82.20;;;;;;5054451;28;20187;-91
2021/05/13 10:19:28;;;;;;;5.80;2.08;;;27.00;85.00;;;;;;5040892;28;20180;-91
2021/05/13 10:21:55;;;;;;;5.20;2.10;;;26.00;89.00;;;;;;5055806;28;20199;-92
2021/05/13 10:24:21;;;;;;;4.18;1.60;;;25.80;91.20;;;;;;5055910;28;20172;-89
2021/05/13 10:26:51;;;;;;;7.00;1.90;;;25.60;92.70;;;;;;5031543;28;20230;-89
2021/05/13 10:29:22;;;;;;;4.45;1.95;;;24.60;94.30;;;;;;5035498;28;20172;-88
2021/05/13 10:32:20;;;;;;;5.55;2.53;;;23.60;94.20;;;;;;5048116;28;20211;-89
2021/05/13 10:34:59;;;;;;;3.88;2.10;;;22.80;95.60;;;;;;5044895;28;20183;-89
2021/05/13 10:37:26;;;;;;;12.32;2.03;;;23.20;97.30;;;;;;5070183;28;20187;-89
2021/05/13 10:43:07;;;;;;;9.57;2.15;;;26.30;93.50;;;;;;5040780;28;20298;-89
2021/05/13 10:45:41;;;;;;;8.38;2.63;;;26.40;93.50;;;;;;5052502;28;20175;-89
2021/05/13 10:48:11;;;;;;;7.93;2.97;;;27.00;91.20;;;;;;5066426;28;20186;-90
2021/05/13 10:50:58;;;;;;;7.53;3.38;;;26.40;93.20;;;;;;5091621;28;20168;-89
2021/05/13 10:56:13;;;;;;;5.85;2.42;;;25.00;94.50;;;;;;5069699;28;20698;-88
2021/05/13 10:59:05;;;;;;;5.18;1.90;;;24.80;93.50;;;;;;5076603;28;20173;-90
2021/05/13 11:01:37;;;;;;;8.20;2.53;;;24.90;93.40;;;;;;5059656;28;20230;-90
2021/05/13 11:04:21;;;;;;;6.13;2.20;;;25.40;93.80;;;;;;5065809;28;20221;-90
2021/05/13 11:06:53;;;;;;;6.07;2.45;;;25.00;93.10;;;;;;5074142;28;20185;-91
2021/05/13 11:09:38;;;;;;;4.40;2.40;;;24.50;93.40;;;;;;5056819;28;20180;-90
2021/05/13 11:12:21;;;;;;;6.60;2.50;;;24.30;93.90;;;;;;5056021;28;20662;-89
2021/05/13 11:14:58;;;;;;;6.50;2.88;;;24.50;93.90;;;;;;5041977;28;20182;-91
2021/05/13 11:17:47;;;;;;;6.15;2.08;;;24.20;93.70;;;;;;5052925;28;20183;-90
2021/05/13 11:20:23;;;;;;;13.55;3.10;;;23.30;94.70;;;;;;5071149;28;20528;-90
2021/05/13 11:23:04;;;;;;;7.30;2.90;;;22.40;98.10;;;;;;5071623;28;20527;-91
2021/05/13 11:25:52;;;;;;;7.20;2.80;;;21.70;98.80;;;;;;5074241;28;20282;-91
2021/05/13 11:28:20;;;;;;;5.03;3.72;;;21.20;99.90;;;;;;5058635;28;20175;-89
2021/05/13 11:30:48;;;;;;;7.30;3.33;;;20.80;99.90;;;;;;5057913;28;20535;-89
2021/05/13 11:33:14;;;;;;;5.82;2.95;;;20.70;99.90;;;;;;5077010;28;20172;-87
2021/05/13 11:35:40;;;;;;;6.93;3.42;;;20.70;99.90;;;;;;5048531;28;20183;-87
2021/05/13 11:38:20;;;;;;;5.93;3.45;;;20.50;99.90;;;;;;5088708;28;20187;-87
2021/05/13 11:40:47;;;;;;;14.50;3.40;;;20.40;99.90;;;;;;5054626;28;20201;-89
2021/05/13 11:43:21;;;;;;;5.88;3.38;;;19.90;99.90;;;;;;5054532;28;20175;-87
2021/05/13 11:45:48;;;;;;;6.00;4.40;;;19.10;99.90;;;;;;5051697;28;20649;-89
2021/05/13 11:48:27;;;;;;;5.40;2.90;;;18.70;99.90;;;;;;5069135;28;20197;-90
2021/05/13 11:50:58;;;;;;;8.25;2.58;;;18.50;99.90;;;;;;5053879;28;20179;-91
2021/05/13 11:53:24;;;;;;;3.83;2.20;;;17.90;99.90;;;;;;5080392;28;20175;-89
2021/05/13 11:55:51;;;;;;;3.30;1.90;;;17.30;99.90;;;;;;5035534;28;20252;-89
2021/05/13 11:58:39;;;;;;;2.25;1.70;;;16.90;99.90;;;;;;5039007;28;20171;-88
2021/05/13 12:01:20;;;;;;;3.30;1.80;;;16.50;99.90;;;;;;5051490;28;20190;-89
2021/05/13 12:03:50;;;;;;;1.65;1.55;;;16.10;99.90;;;;;;5039918;28;20663;-90
2021/05/13 12:06:16;;;;;;;1.63;1.27;;;15.90;99.90;;;;;;5044285;28;20191;-91
2021/05/13 12:08:42;;;;;;;3.30;1.20;;;15.70;99.90;;;;;;5068370;28;20644;-90
2021/05/13 12:11:21;;;;;;;2.28;0.95;;;15.50;99.90;;;;;;5049050;28;20176;-92
2021/05/13 12:13:48;;;;;;;3.45;0.93;;;15.20;99.90;;;;;;5062122;28;20171;-90
2021/05/13 12:16:15;;;;;;;1.27;1.05;;;14.80;99.90;;;;;;5038043;28;20191;-93
2021/05/13 12:18:49;;;;;;;1.75;0.93;;;14.50;99.90;;;;;;5041363;28;20182;-90
2021/05/13 12:21:17;;;;;;;0.93;0.93;;;14.20;99.90;;;;;;5087823;28;20613;-92
2021/05/13 12:23:44;;;;;;;0.98;0.82;;;14.00;99.90;;;;;;5055838;28;20183;-93
2021/05/13 12:26:21;;;;;;;1.85;0.68;;;13.90;99.90;;;;;;5038171;28;20183;-91
2021/05/13 12:28:47;;;;;;;1.20;1.10;;;13.70;99.90;;;;;;5071518;28;20178;-91
2021/05/13 12:31:27;;;;;;;0.90;0.80;;;13.70;99.90;;;;;;5059345;28;20184;-90
2021/05/13 12:33:53;;;;;;;2.90;1.10;;;13.60;99.90;;;;;;5061076;28;20179;-93
2021/05/13 12:36:20;;;;;;;0.93;0.90;;;13.70;99.90;;;;;;5058966;28;20179;-93
2021/05/13 12:38:46;;;;;;;1.40;1.30;;;13.80;99.90;;;;;;5080829;28;20188;-92
2021/05/13 12:41:16;;;;;;;1.60;1.45;;;13.80;99.90;;;;;;5054421;28;20192;-93
2021/05/13 12:43:47;;;;;;;6.53;1.33;;;13.90;99.90;;;;;;5054950;28;20548;-93
2021/05/13 12:46:21;;;;;;;2.72;1.42;;;13.90;99.90;;;;;;5054263;28;20163;-93
2021/05/13 12:48:48;;;;;;;1.45;1.30;;;13.90;99.90;;;;;;5054818;28;20181;-94
2021/05/13 12:51:23;;;;;;;2.22;1.90;;;14.10;99.90;;;;;;5057310;28;20273;-95
2021/05/13 12:53:51;;;;;;;2.58;2.38;;;14.30;99.90;;;;;;5058332;28;20174;-92
2021/05/13 12:56:28;;;;;;;3.03;2.40;;;14.60;99.90;;;;;;5058310;28;20547;-90
2021/05/13 12:59:12;;;;;;;5.50;2.22;;;14.80;99.90;;;;;;5073493;28;20179;-90
2021/05/13 13:01:40;;;;;;;2.85;2.65;;;14.90;99.90;;;;;;5089893;28;20199;-91
2021/05/13 13:04:08;;;;;;;2.40;2.30;;;15.00;99.90;;;;;;5058208;28;20218;-90
2021/05/13 13:06:47;;;;;;;2.20;2.10;;;15.00;99.90;;;;;;5059065;28;20179;-91